sensor_id;sensor_type;location;lat;lon;timestamp;temperature;humidity
18741;DHT22;9499;52.472;13.448;2023-08-30T00:01:32;15.30;99.90
18741;DHT22;9499;52.472;13.448;2023-08-30T00:03:59;15.30;99.90
18741;DHT22;9499;52.472;13.448;2023-08-30T00:06:25;15.20;99.90
18741;DHT22;9499;52.472;13.448;2023-08-30T00:08:53;15.10;99.90
18741;DHT22;9499;52.472;13.448;2023-08-30T00:11:23;15.10;99.90
18741;DHT22;9499;52.472;13.448;2023-08-30T00:13:49;15.10;99.90
18741;DHT22;9499;52.472;13.448;2023-08-30T00:16:16;15.10;99.90
18741;DHT22;9499;52.472;13.448;2023-08-30T00:18:43;15.10;99.90
18741;DHT22;9499;52.472;13.448;2023-08-30T00:21:09;15.00;99.90
18741;DHT22;9499;52.472;13.448;2023-08-30T00:23:36;15.00;99.90
18741;DHT22;9499;52.472;13.448;2023-08-30T00:26:02;15.00;99.90
18741;DHT22;9499;52.472;13.448;2023-08-30T00:28:30;15.00;99.90
18741;DHT22;9499;52.472;13.448;2023-08-30T00:30:57;15.00;99.90
18741;DHT22;9499;52.472;13.448;2023-08-30T00:33:23;15.00;99.90
18741;DHT22;9499;52.472;13.448;2023-08-30T00:35:55;15.00;99.90
18741;DHT22;9499;52.472;13.448;2023-08-30T00:38:22;15.00;99.90
18741;DHT22;9499;52.472;13.448;2023-08-30T00:40:49;14.90;99.90
18741;DHT22;9499;52.472;13.448;2023-08-30T00:43:15;14.90;99.90
18741;DHT22;9499;52.472;13.448;2023-08-30T00:45:43;14.80;99.90
18741;DHT22;9499;52.472;13.448;2023-08-30T00:48:10;14.80;99.90
18741;DHT22;9499;52.472;13.448;2023-08-30T00:50:37;14.80;99.90
18741;DHT22;9499;52.472;13.448;2023-08-30T00:53:05;14.80;99.90
18741;DHT22;9499;52.472;13.448;2023-08-30T00:55:33;14.70;99.90
18741;DHT22;9499;52.472;13.448;2023-08-30T00:58:00;14.80;99.90
18741;DHT22;9499;52.472;13.448;2023-08-30T01:00:27;14.70;99.90
18741;DHT22;9499;52.472;13.448;2023-08-30T01:02:55;14.70;99.90
18741;DHT22;9499;52.472;13.448;2023-08-30T01:05:22;14.70;99.90
18741;DHT22;9499;52.472;13.448;2023-08-30T01:07:50;14.80;99.90
18741;DHT22;9499;52.472;13.448;2023-08-30T01:10:17;14.80;99.90
18741;DHT22;9499;52.472;13.448;2023-08-30T01:12:47;14.80;99.90
18741;DHT22;9499;52.472;13.448;2023-08-30T01:15:18;14.80;99.90
18741;DHT22;9499;52.472;13.448;2023-08-30T01:17:47;14.80;99.90
18741;DHT22;9499;52.472;13.448;2023-08-30T01:20:16;14.80;99.90
18741;DHT22;9499;52.472;13.448;2023-08-30T01:22:49;14.70;99.90
18741;DHT22;9499;52.472;13.448;2023-08-30T01:25:31;14.70;99.90
18741;DHT22;9499;52.472;13.448;2023-08-30T01:28:01;14.70;99.90
18741;DHT22;9499;52.472;13.448;2023-08-30T01:30:30;14.70;99.90
18741;DHT22;9499;52.472;13.448;2023-08-30T01:32:58;14.80;99.90
18741;DHT22;9499;52.472;13.448;2023-08-30T01:35:26;14.80;99.90
18741;DHT22;9499;52.472;13.448;2023-08-30T01:37:58;14.80;99.90
18741;DHT22;9499;52.472;13.448;2023-08-30T01:40:29;14.80;99.90
18741;DHT22;9499;52.472;13.448;2023-08-30T01:42:59;14.90;99.90
18741;DHT22;9499;52.472;13.448;2023-08-30T01:45:26;14.90;99.90
18741;DHT22;9499;52.472;13.448;2023-08-30T01:47:54;14.90;99.90
18741;DHT22;9499;52.472;13.448;2023-08-30T01:50:22;14.80;99.90
18741;DHT22;9499;52.472;13.448;2023-08-30T01:52:49;14.80;99.90
18741;DHT22;9499;52.472;13.448;2023-08-30T01:55:18;14.90;99.90
18741;DHT22;9499;52.472;13.448;2023-08-30T01:57:46;14.90;99.90
18741;DHT22;9499;52.472;13.448;2023-08-30T02:00:15;14.90;99.90
18741;DHT22;9499;52.472;13.448;2023-08-30T02:02:41;14.90;99.90
18741;DHT22;9499;52.472;13.448;2023-08-30T02:05:08;14.90;99.90
18741;DHT22;9499;52.472;13.448;2023-08-30T02:07:40;14.80;99.90
18741;DHT22;9499;52.472;13.448;2023-08-30T02:10:10;14.80;99.90
18741;DHT22;9499;52.472;13.448;2023-08-30T02:12:42;14.70;99.90
18741;DHT22;9499;52.472;13.448;2023-08-30T02:15:11;14.70;99.90
18741;DHT22;9499;52.472;13.448;2023-08-30T02:17:39;14.70;99.90
18741;DHT22;9499;52.472;13.448;2023-08-30T02:20:07;14.70;99.90
18741;DHT22;9499;52.472;13.448;2023-08-30T02:22:33;14.70;99.90
18741;DHT22;9499;52.472;13.448;2023-08-30T02:25:00;14.80;99.90
18741;DHT22;9499;52.472;13.448;2023-08-30T02:27:30;14.70;99.90
18741;DHT22;9499;52.472;13.448;2023-08-30T02:29:56;14.80;99.90
18741;DHT22;9499;52.472;13.448;2023-08-30T02:32:23;14.70;99.90
18741;DHT22;9499;52.472;13.448;2023-08-30T02:34:52;14.70;99.90
18741;DHT22;9499;52.472;13.448;2023-08-30T02:37:19;14.80;99.90
18741;DHT22;9499;52.472;13.448;2023-08-30T02:39:45;14.80;99.90
18741;DHT22;9499;52.472;13.448;2023-08-30T02:42:12;14.80;99.90
18741;DHT22;9499;52.472;13.448;2023-08-30T02:44:39;14.70;99.90
18741;DHT22;9499;52.472;13.448;2023-08-30T02:47:05;14.70;99.90
18741;DHT22;9499;52.472;13.448;2023-08-30T02:49:32;14.70;99.90
18741;DHT22;9499;52.472;13.448;2023-08-30T02:51:59;14.60;99.90
18741;DHT22;9499;52.472;13.448;2023-08-30T02:54:26;14.60;99.90
18741;DHT22;9499;52.472;13.448;2023-08-30T02:56:53;14.60;99.90
18741;DHT22;9499;52.472;13.448;2023-08-30T02:59:20;14.50;99.90
18741;DHT22;9499;52.472;13.448;2023-08-30T03:01:46;14.50;99.90
18741;DHT22;9499;52.472;13.448;2023-08-30T03:04:13;14.50;99.90
18741;DHT22;9499;52.472;13.448;2023-08-30T03:06:39;14.40;99.90
18741;DHT22;9499;52.472;13.448;2023-08-30T03:09:07;14.40;99.90
18741;DHT22;9499;52.472;13.448;2023-08-30T03:11:34;14.30;99.90
18741;DHT22;9499;52.472;13.448;2023-08-30T03:14:00;14.30;99.90
18741;DHT22;9499;52.472;13.448;2023-08-30T03:16:27;14.30;99.90
18741;DHT22;9499;52.472;13.448;2023-08-30T03:18:54;14.30;99.90
18741;DHT22;9499;52.472;13.448;2023-08-30T03:21:20;14.30;99.90
18741;DHT22;9499;52.472;13.448;2023-08-30T03:23:47;14.20;99.90
18741;DHT22;9499;52.472;13.448;2023-08-30T03:26:15;14.20;99.90
18741;DHT22;9499;52.472;13.448;2023-08-30T03:28:43;14.20;99.90
18741;DHT22;9499;52.472;13.448;2023-08-30T03:31:14;14.20;99.90
18741;DHT22;9499;52.472;13.448;2023-08-30T03:33:41;14.10;99.90
18741;DHT22;9499;52.472;13.448;2023-08-30T03:36:07;14.10;99.90
18741;DHT22;9499;52.472;13.448;2023-08-30T03:38:35;14.10;99.90
18741;DHT22;9499;52.472;13.448;2023-08-30T03:41:02;14.10;99.90
18741;DHT22;9499;52.472;13.448;2023-08-30T03:43:30;14.10;99.90
18741;DHT22;9499;52.472;13.448;2023-08-30T03:45:57;14.10;99.90
18741;DHT22;9499;52.472;13.448;2023-08-30T03:48:24;14.20;99.90
18741;DHT22;9499;52.472;13.448;2023-08-30T03:50:50;14.20;99.90
18741;DHT22;9499;52.472;13.448;2023-08-30T03:53:17;14.30;99.90
18741;DHT22;9499;52.472;13.448;2023-08-30T03:55:43;14.20;99.90
18741;DHT22;9499;52.472;13.448;2023-08-30T03:58:10;14.20;99.90
18741;DHT22;9499;52.472;13.448;2023-08-30T04:00:38;14.10;99.90
18741;DHT22;9499;52.472;13.448;2023-08-30T04:03:04;14.20;99.90
18741;DHT22;9499;52.472;13.448;2023-08-30T04:05:32;14.20;99.90
18741;DHT22;9499;52.472;13.448;2023-08-30T04:08:00;14.20;99.90
18741;DHT22;9499;52.472;13.448;2023-08-30T04:10:27;14.30;99.90
18741;DHT22;9499;52.472;13.448;2023-08-30T04:12:54;14.30;99.90
18741;DHT22;9499;52.472;13.448;2023-08-30T04:15:20;14.20;99.90
18741;DHT22;9499;52.472;13.448;2023-08-30T04:17:48;14.20;99.90
18741;DHT22;9499;52.472;13.448;2023-08-30T04:20:15;14.30;99.90
18741;DHT22;9499;52.472;13.448;2023-08-30T04:22:41;14.30;99.90
18741;DHT22;9499;52.472;13.448;2023-08-30T04:25:08;14.30;99.90
18741;DHT22;9499;52.472;13.448;2023-08-30T04:27:35;14.40;99.90
18741;DHT22;9499;52.472;13.448;2023-08-30T04:30:01;14.40;99.90
18741;DHT22;9499;52.472;13.448;2023-08-30T04:32:28;14.50;99.90
18741;DHT22;9499;52.472;13.448;2023-08-30T04:34:56;14.50;99.90
18741;DHT22;9499;52.472;13.448;2023-08-30T04:37:22;14.60;99.90
18741;DHT22;9499;52.472;13.448;2023-08-30T04:39:49;14.60;99.90
18741;DHT22;9499;52.472;13.448;2023-08-30T04:42:16;14.60;99.90
18741;DHT22;9499;52.472;13.448;2023-08-30T04:44:42;14.60;99.90
18741;DHT22;9499;52.472;13.448;2023-08-30T04:47:09;14.50;99.90
18741;DHT22;9499;52.472;13.448;2023-08-30T04:49:35;14.40;99.90
18741;DHT22;9499;52.472;13.448;2023-08-30T04:52:04;14.40;99.90
18741;DHT22;9499;52.472;13.448;2023-08-30T04:54:31;14.30;99.90
18741;DHT22;9499;52.472;13.448;2023-08-30T04:56:57;14.30;99.90
18741;DHT22;9499;52.472;13.448;2023-08-30T04:59:24;14.40;99.90
18741;DHT22;9499;52.472;13.448;2023-08-30T05:01:50;14.50;99.90
18741;DHT22;9499;52.472;13.448;2023-08-30T05:04:17;14.50;99.90
18741;DHT22;9499;52.472;13.448;2023-08-30T05:06:43;14.60;99.90
18741;DHT22;9499;52.472;13.448;2023-08-30T05:09:11;14.60;99.90
18741;DHT22;9499;52.472;13.448;2023-08-30T05:11:38;14.60;99.90
18741;DHT22;9499;52.472;13.448;2023-08-30T05:14:04;14.60;99.90
18741;DHT22;9499;52.472;13.448;2023-08-30T05:16:31;14.60;99.90
18741;DHT22;9499;52.472;13.448;2023-08-30T05:18:57;14.60;99.90
18741;DHT22;9499;52.472;13.448;2023-08-30T05:21:24;14.70;99.90
18741;DHT22;9499;52.472;13.448;2023-08-30T05:23:50;14.70;99.90
18741;DHT22;9499;52.472;13.448;2023-08-30T05:26:18;14.70;99.90
18741;DHT22;9499;52.472;13.448;2023-08-30T05:28:45;14.70;99.90
18741;DHT22;9499;52.472;13.448;2023-08-30T05:31:12;14.70;99.90
18741;DHT22;9499;52.472;13.448;2023-08-30T05:33:38;14.70;99.90
18741;DHT22;9499;52.472;13.448;2023-08-30T05:36:05;14.70;99.90
18741;DHT22;9499;52.472;13.448;2023-08-30T05:38:31;14.70;99.90
18741;DHT22;9499;52.472;13.448;2023-08-30T05:40:58;14.80;99.90
18741;DHT22;9499;52.472;13.448;2023-08-30T05:43:26;14.80;99.90
18741;DHT22;9499;52.472;13.448;2023-08-30T05:45:52;14.80;99.90
18741;DHT22;9499;52.472;13.448;2023-08-30T05:48:19;14.80;99.90
18741;DHT22;9499;52.472;13.448;2023-08-30T05:50:45;14.90;99.90
18741;DHT22;9499;52.472;13.448;2023-08-30T05:53:12;15.00;99.90
18741;DHT22;9499;52.472;13.448;2023-08-30T05:55:38;15.00;99.90
18741;DHT22;9499;52.472;13.448;2023-08-30T05:58:05;15.00;99.90
18741;DHT22;9499;52.472;13.448;2023-08-30T06:00:33;15.00;99.90
18741;DHT22;9499;52.472;13.448;2023-08-30T06:02:59;15.00;99.90
18741;DHT22;9499;52.472;13.448;2023-08-30T06:05:26;15.00;99.90
18741;DHT22;9499;52.472;13.448;2023-08-30T06:07:52;15.00;99.90
18741;DHT22;9499;52.472;13.448;2023-08-30T06:10:19;15.00;99.90
18741;DHT22;9499;52.472;13.448;2023-08-30T06:12:46;15.00;99.90
18741;DHT22;9499;52.472;13.448;2023-08-30T06:15:12;15.10;99.90
18741;DHT22;9499;52.472;13.448;2023-08-30T06:17:40;15.10;99.90
18741;DHT22;9499;52.472;13.448;2023-08-30T06:20:07;15.10;99.90
18741;DHT22;9499;52.472;13.448;2023-08-30T06:22:34;15.10;99.90
18741;DHT22;9499;52.472;13.448;2023-08-30T06:25:00;15.10;99.90
18741;DHT22;9499;52.472;13.448;2023-08-30T06:27:29;15.10;99.90
18741;DHT22;9499;52.472;13.448;2023-08-30T06:29:56;15.20;99.90
18741;DHT22;9499;52.472;13.448;2023-08-30T06:32:22;15.30;99.90
18741;DHT22;9499;52.472;13.448;2023-08-30T06:34:50;15.30;99.90
18741;DHT22;9499;52.472;13.448;2023-08-30T06:37:17;15.40;99.90
18741;DHT22;9499;52.472;13.448;2023-08-30T06:39:43;15.40;99.90
18741;DHT22;9499;52.472;13.448;2023-08-30T06:42:10;15.40;99.90
18741;DHT22;9499;52.472;13.448;2023-08-30T06:44:36;15.40;99.90
18741;DHT22;9499;52.472;13.448;2023-08-30T06:47:03;15.50;99.90
18741;DHT22;9499;52.472;13.448;2023-08-30T06:49:30;15.50;99.90
18741;DHT22;9499;52.472;13.448;2023-08-30T06:51:58;15.60;99.90
18741;DHT22;9499;52.472;13.448;2023-08-30T06:54:27;15.60;99.90
18741;DHT22;9499;52.472;13.448;2023-08-30T06:56:59;15.60;99.90
18741;DHT22;9499;52.472;13.448;2023-08-30T06:59:26;15.60;99.90
18741;DHT22;9499;52.472;13.448;2023-08-30T07:01:53;15.70;99.90
18741;DHT22;9499;52.472;13.448;2023-08-30T07:04:20;15.70;99.90
18741;DHT22;9499;52.472;13.448;2023-08-30T07:06:47;15.80;99.90
18741;DHT22;9499;52.472;13.448;2023-08-30T07:09:15;16.00;99.90
18741;DHT22;9499;52.472;13.448;2023-08-30T07:11:42;16.00;99.90
18741;DHT22;9499;52.472;13.448;2023-08-30T07:14:10;16.00;99.90
18741;DHT22;9499;52.472;13.448;2023-08-30T07:16:36;16.10;99.90
18741;DHT22;9499;52.472;13.448;2023-08-30T07:19:03;16.20;99.90
18741;DHT22;9499;52.472;13.448;2023-08-30T07:21:29;16.30;99.90
18741;DHT22;9499;52.472;13.448;2023-08-30T07:23:56;16.30;99.90
18741;DHT22;9499;52.472;13.448;2023-08-30T07:26:24;16.30;99.90
18741;DHT22;9499;52.472;13.448;2023-08-30T07:28:51;16.40;99.90
18741;DHT22;9499;52.472;13.448;2023-08-30T07:31:17;16.40;99.90
18741;DHT22;9499;52.472;13.448;2023-08-30T07:33:44;16.50;99.90
18741;DHT22;9499;52.472;13.448;2023-08-30T07:36:11;16.60;99.90
18741;DHT22;9499;52.472;13.448;2023-08-30T07:38:38;16.60;99.90
18741;DHT22;9499;52.472;13.448;2023-08-30T07:41:04;16.60;99.90
18741;DHT22;9499;52.472;13.448;2023-08-30T07:43:32;16.70;99.90
18741;DHT22;9499;52.472;13.448;2023-08-30T07:45:59;16.70;99.90
18741;DHT22;9499;52.472;13.448;2023-08-30T07:48:25;16.80;99.90
18741;DHT22;9499;52.472;13.448;2023-08-30T07:50:52;16.80;99.90
18741;DHT22;9499;52.472;13.448;2023-08-30T07:53:18;16.80;99.90
18741;DHT22;9499;52.472;13.448;2023-08-30T07:55:48;16.70;99.90
18741;DHT22;9499;52.472;13.448;2023-08-30T07:58:15;16.70;99.90
18741;DHT22;9499;52.472;13.448;2023-08-30T08:00:43;16.70;99.90
18741;DHT22;9499;52.472;13.448;2023-08-30T08:03:09;16.70;99.90
18741;DHT22;9499;52.472;13.448;2023-08-30T08:05:36;16.80;99.90
18741;DHT22;9499;52.472;13.448;2023-08-30T08:08:03;16.80;99.90
18741;DHT22;9499;52.472;13.448;2023-08-30T08:10:32;16.80;99.90
18741;DHT22;9499;52.472;13.448;2023-08-30T08:12:58;16.80;99.90
18741;DHT22;9499;52.472;13.448;2023-08-30T08:15:25;16.90;99.90
18741;DHT22;9499;52.472;13.448;2023-08-30T08:17:53;16.90;99.90
18741;DHT22;9499;52.472;13.448;2023-08-30T08:20:19;16.90;99.90
18741;DHT22;9499;52.472;13.448;2023-08-30T08:22:46;16.90;99.90
18741;DHT22;9499;52.472;13.448;2023-08-30T08:25:13;16.90;99.90
18741;DHT22;9499;52.472;13.448;2023-08-30T08:27:39;17.00;99.90
18741;DHT22;9499;52.472;13.448;2023-08-30T08:30:07;17.10;99.90
18741;DHT22;9499;52.472;13.448;2023-08-30T08:32:34;17.20;99.90
18741;DHT22;9499;52.472;13.448;2023-08-30T08:35:03;17.30;99.90
18741;DHT22;9499;52.472;13.448;2023-08-30T08:37:30;17.40;99.90
18741;DHT22;9499;52.472;13.448;2023-08-30T08:39:57;17.50;99.90
18741;DHT22;9499;52.472;13.448;2023-08-30T08:42:23;17.50;1.00
18741;DHT22;9499;52.472;13.448;2023-08-30T08:44:51;17.60;1.00
18741;DHT22;9499;52.472;13.448;2023-08-30T08:47:19;17.60;1.00
18741;DHT22;9499;52.472;13.448;2023-08-30T08:49:46;17.60;1.00
18741;DHT22;9499;52.472;13.448;2023-08-30T08:52:15;17.70;1.00
18741;DHT22;9499;52.472;13.448;2023-08-30T08:54:43;17.80;99.90
18741;DHT22;9499;52.472;13.448;2023-08-30T08:57:09;17.70;11.10
18741;DHT22;9499;52.472;13.448;2023-08-30T08:59:36;17.60;99.90
18741;DHT22;9499;52.472;13.448;2023-08-30T09:02:03;17.60;99.90
18741;DHT22;9499;52.472;13.448;2023-08-30T09:04:31;17.70;99.90
18741;DHT22;9499;52.472;13.448;2023-08-30T09:06:58;17.80;99.90
18741;DHT22;9499;52.472;13.448;2023-08-30T09:09:26;17.90;99.90
18741;DHT22;9499;52.472;13.448;2023-08-30T09:11:53;18.00;1.00
18741;DHT22;9499;52.472;13.448;2023-08-30T09:14:19;17.90;1.00
18741;DHT22;9499;52.472;13.448;2023-08-30T09:16:54;17.90;1.00
18741;DHT22;9499;52.472;13.448;2023-08-30T09:19:21;18.00;1.00
18741;DHT22;9499;52.472;13.448;2023-08-30T09:21:51;18.00;1.00
18741;DHT22;9499;52.472;13.448;2023-08-30T09:24:18;18.10;1.00
18741;DHT22;9499;52.472;13.448;2023-08-30T09:26:48;18.20;1.00
18741;DHT22;9499;52.472;13.448;2023-08-30T09:29:16;18.40;1.00
18741;DHT22;9499;52.472;13.448;2023-08-30T09:31:44;18.40;1.00
18741;DHT22;9499;52.472;13.448;2023-08-30T09:34:11;18.50;1.00
18741;DHT22;9499;52.472;13.448;2023-08-30T09:36:38;18.60;1.00
18741;DHT22;9499;52.472;13.448;2023-08-30T09:39:05;18.60;1.00
18741;DHT22;9499;52.472;13.448;2023-08-30T09:41:32;18.70;1.00
18741;DHT22;9499;52.472;13.448;2023-08-30T09:44:06;18.70;1.00
18741;DHT22;9499;52.472;13.448;2023-08-30T09:46:40;18.70;99.90
18741;DHT22;9499;52.472;13.448;2023-08-30T09:49:07;18.70;1.00
18741;DHT22;9499;52.472;13.448;2023-08-30T09:51:35;18.90;99.90
18741;DHT22;9499;52.472;13.448;2023-08-30T09:54:11;18.70;1.00
18741;DHT22;9499;52.472;13.448;2023-08-30T09:56:40;18.70;1.00
18741;DHT22;9499;52.472;13.448;2023-08-30T09:59:09;18.80;99.90
18741;DHT22;9499;52.472;13.448;2023-08-30T10:01:36;19.00;1.00
18741;DHT22;9499;52.472;13.448;2023-08-30T10:04:04;19.30;99.90
18741;DHT22;9499;52.472;13.448;2023-08-30T10:06:31;19.50;99.90
18741;DHT22;9499;52.472;13.448;2023-08-30T10:08:59;19.70;1.00
18741;DHT22;9499;52.472;13.448;2023-08-30T10:11:27;19.90;1.00
18741;DHT22;9499;52.472;13.448;2023-08-30T10:13:55;20.20;99.90
18741;DHT22;9499;52.472;13.448;2023-08-30T10:16:24;20.30;99.90
18741;DHT22;9499;52.472;13.448;2023-08-30T10:18:59;20.30;1.00
18741;DHT22;9499;52.472;13.448;2023-08-30T10:21:27;20.40;99.90
18741;DHT22;9499;52.472;13.448;2023-08-30T10:23:56;20.50;99.90
18741;DHT22;9499;52.472;13.448;2023-08-30T10:26:26;20.70;1.00
18741;DHT22;9499;52.472;13.448;2023-08-30T10:28:54;21.00;99.90
18741;DHT22;9499;52.472;13.448;2023-08-30T10:31:22;21.00;99.90
18741;DHT22;9499;52.472;13.448;2023-08-30T10:33:49;21.10;1.00
18741;DHT22;9499;52.472;13.448;2023-08-30T10:36:22;21.00;1.00
18741;DHT22;9499;52.472;13.448;2023-08-30T10:38:49;20.90;1.00
18741;DHT22;9499;52.472;13.448;2023-08-30T10:41:20;20.90;1.00
18741;DHT22;9499;52.472;13.448;2023-08-30T10:43:50;20.90;99.90
18741;DHT22;9499;52.472;13.448;2023-08-30T10:46:17;21.00;1.00
18741;DHT22;9499;52.472;13.448;2023-08-30T10:48:45;20.90;1.00
18741;DHT22;9499;52.472;13.448;2023-08-30T10:51:20;21.00;99.90
18741;DHT22;9499;52.472;13.448;2023-08-30T10:53:57;21.40;1.00
18741;DHT22;9499;52.472;13.448;2023-08-30T10:56:28;21.70;99.90
18741;DHT22;9499;52.472;13.448;2023-08-30T10:58:54;21.80;99.90
18741;DHT22;9499;52.472;13.448;2023-08-30T11:01:21;22.10;99.90
18741;DHT22;9499;52.472;13.448;2023-08-30T11:03:50;22.20;1.00
18741;DHT22;9499;52.472;13.448;2023-08-30T11:06:18;22.40;99.90
18741;DHT22;9499;52.472;13.448;2023-08-30T11:08:44;22.40;1.00
18741;DHT22;9499;52.472;13.448;2023-08-30T11:11:11;22.50;1.00
18741;DHT22;9499;52.472;13.448;2023-08-30T11:13:39;22.40;1.00
18741;DHT22;9499;52.472;13.448;2023-08-30T11:16:06;22.10;1.00
18741;DHT22;9499;52.472;13.448;2023-08-30T11:18:37;21.80;1.00
18741;DHT22;9499;52.472;13.448;2023-08-30T11:21:05;21.60;99.90
18741;DHT22;9499;52.472;13.448;2023-08-30T11:23:33;21.30;1.00
18741;DHT22;9499;52.472;13.448;2023-08-30T11:26:00;21.30;1.00
18741;DHT22;9499;52.472;13.448;2023-08-30T11:28:29;21.30;1.00
18741;DHT22;9499;52.472;13.448;2023-08-30T11:30:55;21.20;99.90
18741;DHT22;9499;52.472;13.448;2023-08-30T11:33:22;21.20;99.90
18741;DHT22;9499;52.472;13.448;2023-08-30T11:35:50;21.20;1.00
18741;DHT22;9499;52.472;13.448;2023-08-30T11:38:19;21.10;1.00
18741;DHT22;9499;52.472;13.448;2023-08-30T11:40:49;21.20;1.00
18741;DHT22;9499;52.472;13.448;2023-08-30T11:43:16;21.40;1.00
18741;DHT22;9499;52.472;13.448;2023-08-30T11:45:42;21.50;1.00
18741;DHT22;9499;52.472;13.448;2023-08-30T11:48:09;21.50;1.00
18741;DHT22;9499;52.472;13.448;2023-08-30T11:50:36;21.30;99.90
18741;DHT22;9499;52.472;13.448;2023-08-30T11:53:03;21.10;99.90
18741;DHT22;9499;52.472;13.448;2023-08-30T11:55:31;21.00;99.90
18741;DHT22;9499;52.472;13.448;2023-08-30T11:57:57;20.90;99.90
18741;DHT22;9499;52.472;13.448;2023-08-30T12:00:24;20.80;99.90
18741;DHT22;9499;52.472;13.448;2023-08-30T12:02:51;20.80;1.00
18741;DHT22;9499;52.472;13.448;2023-08-30T12:05:17;20.80;1.00
18741;DHT22;9499;52.472;13.448;2023-08-30T12:07:45;20.90;1.00
18741;DHT22;9499;52.472;13.448;2023-08-30T12:10:12;20.90;1.00
18741;DHT22;9499;52.472;13.448;2023-08-30T12:12:44;21.00;1.00
18741;DHT22;9499;52.472;13.448;2023-08-30T12:15:12;21.00;1.00
18741;DHT22;9499;52.472;13.448;2023-08-30T12:17:39;21.00;1.00
18741;DHT22;9499;52.472;13.448;2023-08-30T12:20:14;20.90;1.00
18741;DHT22;9499;52.472;13.448;2023-08-30T12:22:42;20.80;1.00
18741;DHT22;9499;52.472;13.448;2023-08-30T12:25:18;20.70;1.00
18741;DHT22;9499;52.472;13.448;2023-08-30T12:27:47;20.60;99.90
18741;DHT22;9499;52.472;13.448;2023-08-30T12:30:14;20.50;99.90
18741;DHT22;9499;52.472;13.448;2023-08-30T12:32:41;20.50;1.00
18741;DHT22;9499;52.472;13.448;2023-08-30T12:35:08;20.60;1.00
18741;DHT22;9499;52.472;13.448;2023-08-30T12:37:35;20.60;1.00
18741;DHT22;9499;52.472;13.448;2023-08-30T12:40:02;20.60;1.00
18741;DHT22;9499;52.472;13.448;2023-08-30T12:42:28;20.50;1.00
18741;DHT22;9499;52.472;13.448;2023-08-30T12:44:56;20.50;1.00
18741;DHT22;9499;52.472;13.448;2023-08-30T12:47:23;20.40;1.00
18741;DHT22;9499;52.472;13.448;2023-08-30T12:49:49;20.40;99.90
18741;DHT22;9499;52.472;13.448;2023-08-30T12:52:16;20.40;99.90
18741;DHT22;9499;52.472;13.448;2023-08-30T12:54:42;20.40;1.00
18741;DHT22;9499;52.472;13.448;2023-08-30T12:57:09;20.50;1.00
18741;DHT22;9499;52.472;13.448;2023-08-30T12:59:36;20.40;99.90
18741;DHT22;9499;52.472;13.448;2023-08-30T13:02:04;20.50;99.90
18741;DHT22;9499;52.472;13.448;2023-08-30T13:04:30;20.60;1.00
18741;DHT22;9499;52.472;13.448;2023-08-30T13:06:57;20.80;1.00
18741;DHT22;9499;52.472;13.448;2023-08-30T13:09:23;20.90;99.90
18741;DHT22;9499;52.472;13.448;2023-08-30T13:11:50;21.20;99.90
18741;DHT22;9499;52.472;13.448;2023-08-30T13:14:16;21.50;33.90
18741;DHT22;9499;52.472;13.448;2023-08-30T13:16:43;21.80;1.00
18741;DHT22;9499;52.472;13.448;2023-08-30T13:19:10;21.90;1.00
18741;DHT22;9499;52.472;13.448;2023-08-30T13:21:37;21.70;1.00
18741;DHT22;9499;52.472;13.448;2023-08-30T13:24:04;21.80;1.00
18741;DHT22;9499;52.472;13.448;2023-08-30T13:26:31;21.70;1.00
18741;DHT22;9499;52.472;13.448;2023-08-30T13:28:57;21.70;1.00
18741;DHT22;9499;52.472;13.448;2023-08-30T13:31:27;21.70;1.00
18741;DHT22;9499;52.472;13.448;2023-08-30T13:33:53;21.80;99.90
18741;DHT22;9499;52.472;13.448;2023-08-30T13:36:21;22.10;99.90
18741;DHT22;9499;52.472;13.448;2023-08-30T13:38:48;21.90;99.90
18741;DHT22;9499;52.472;13.448;2023-08-30T13:41:14;21.90;1.00
18741;DHT22;9499;52.472;13.448;2023-08-30T13:43:41;21.90;1.00
18741;DHT22;9499;52.472;13.448;2023-08-30T13:46:07;22.00;1.00
18741;DHT22;9499;52.472;13.448;2023-08-30T13:48:34;22.10;1.00
18741;DHT22;9499;52.472;13.448;2023-08-30T13:51:00;22.00;99.90
18741;DHT22;9499;52.472;13.448;2023-08-30T13:53:28;21.80;1.00
18741;DHT22;9499;52.472;13.448;2023-08-30T13:55:55;21.60;1.00
18741;DHT22;9499;52.472;13.448;2023-08-30T13:58:22;21.40;1.00
18741;DHT22;9499;52.472;13.448;2023-08-30T14:00:48;21.30;1.00
18741;DHT22;9499;52.472;13.448;2023-08-30T14:03:15;21.10;1.00
18741;DHT22;9499;52.472;13.448;2023-08-30T14:05:41;21.10;99.90
18741;DHT22;9499;52.472;13.448;2023-08-30T14:08:08;21.10;99.90
18741;DHT22;9499;52.472;13.448;2023-08-30T14:10:35;21.10;99.90
18741;DHT22;9499;52.472;13.448;2023-08-30T14:13:03;21.10;99.90
18741;DHT22;9499;52.472;13.448;2023-08-30T14:15:30;21.10;99.90
18741;DHT22;9499;52.472;13.448;2023-08-30T14:17:57;21.50;99.90
18741;DHT22;9499;52.472;13.448;2023-08-30T14:20:23;21.90;99.90
18741;DHT22;9499;52.472;13.448;2023-08-30T14:22:50;22.30;1.00
18741;DHT22;9499;52.472;13.448;2023-08-30T14:25:16;22.50;1.00
18741;DHT22;9499;52.472;13.448;2023-08-30T14:27:44;22.50;99.90
18741;DHT22;9499;52.472;13.448;2023-08-30T14:30:11;22.70;1.00
18741;DHT22;9499;52.472;13.448;2023-08-30T14:32:38;22.90;99.90
18741;DHT22;9499;52.472;13.448;2023-08-30T14:35:05;23.10;99.90
18741;DHT22;9499;52.472;13.448;2023-08-30T14:37:31;23.20;99.90
18741;DHT22;9499;52.472;13.448;2023-08-30T14:39:59;23.20;99.90
18741;DHT22;9499;52.472;13.448;2023-08-30T14:42:26;23.20;99.90
18741;DHT22;9499;52.472;13.448;2023-08-30T14:44:54;23.20;99.90
18741;DHT22;9499;52.472;13.448;2023-08-30T14:47:20;23.30;1.00
18741;DHT22;9499;52.472;13.448;2023-08-30T14:49:47;23.50;1.00
18741;DHT22;9499;52.472;13.448;2023-08-30T14:52:13;23.70;1.00
18741;DHT22;9499;52.472;13.448;2023-08-30T14:54:40;23.90;1.00
18741;DHT22;9499;52.472;13.448;2023-08-30T14:57:07;23.90;1.00
18741;DHT22;9499;52.472;13.448;2023-08-30T14:59:33;23.80;1.00
18741;DHT22;9499;52.472;13.448;2023-08-30T15:02:01;23.80;1.00
18741;DHT22;9499;52.472;13.448;2023-08-30T15:04:28;23.90;1.00
18741;DHT22;9499;52.472;13.448;2023-08-30T15:06:54;23.80;1.00
18741;DHT22;9499;52.472;13.448;2023-08-30T15:09:21;23.70;1.00
18741;DHT22;9499;52.472;13.448;2023-08-30T15:11:47;23.80;1.00
18741;DHT22;9499;52.472;13.448;2023-08-30T15:14:14;23.90;1.00
18741;DHT22;9499;52.472;13.448;2023-08-30T15:16:40;23.80;1.00
18741;DHT22;9499;52.472;13.448;2023-08-30T15:19:08;23.90;1.00
18741;DHT22;9499;52.472;13.448;2023-08-30T15:21:35;23.80;1.00
18741;DHT22;9499;52.472;13.448;2023-08-30T15:24:01;23.40;1.00
18741;DHT22;9499;52.472;13.448;2023-08-30T15:26:30;23.20;1.00
18741;DHT22;9499;52.472;13.448;2023-08-30T15:28:56;23.20;1.00
18741;DHT22;9499;52.472;13.448;2023-08-30T15:31:23;23.00;1.00
18741;DHT22;9499;52.472;13.448;2023-08-30T15:33:49;22.70;1.00
18741;DHT22;9499;52.472;13.448;2023-08-30T15:36:17;22.60;1.00